Time;durP1;ratioP1;P1;durP2;ratioP2;P2;SDS_P1;SDS_P2;PMS_P1;PMS_P2;Temp;Humidity;BMP_temperature;BMP_pressure;BME280_temperature;BME280_humidity;BME280_pressure;Samples;Min_cycle;Max_cycle;Signal;HPM_P1;HPM_P2
2022/07/23 00:07:44;;;;;;;9.52;4.72;;;;;;;;;;4657284;24;20335;-82
2022/07/23 00:11:14;;;;;;;9.77;4.30;;;21.80;75.90;;;;;;4664083;30;20615;-83
2022/07/23 00:13:43;;;;;;;13.82;5.53;;;19.90;74.70;;;;;;4664196;30;20054;-83
2022/07/23 00:17:08;;;;;;;11.15;5.05;;;21.70;77.20;;;;;;4664545;30;20042;-82
2022/07/23 00:26:52;;;;;;;9.50;5.22;;;21.60;76.50;;;;;;4664631;30;20137;-84
2022/07/23 00:30:18;;;;;;;8.98;4.82;;;21.50;77.10;;;;;;4649749;30;20093;-82
2022/07/23 00:33:08;;;;;;;7.93;4.90;;;21.50;77.50;;;;;;4598213;30;20487;-81
2022/07/23 00:35:48;;;;;;;9.65;4.43;;;21.40;77.90;;;;;;4600143;31;20433;-82
2022/07/23 00:38:36;;;;;;;11.65;4.85;;;21.40;78.50;;;;;;4586499;30;20043;-83
2022/07/23 00:41:07;;;;;;;15.02;4.43;;;20.50;78.80;;;;;;4600596;31;20054;-82
2022/07/23 00:43:54;;;;;;;9.10;4.60;;;21.30;81.10;;;;;;4600149;31;20039;-82
2022/07/23 00:46:53;;;;;;;10.63;4.88;;;21.30;81.50;;;;;;4617242;30;20062;-82
2022/07/23 00:57:58;;;;;;;7.85;4.38;;;21.20;80.50;;;;;;4800427;24;20373;-83
2022/07/23 01:04:29;;;;;;;11.68;5.28;;;21.10;80.80;;;;;;4670979;30;20076;-82
2022/07/23 01:07:31;;;;;;;8.77;4.85;;;21.10;81.80;;;;;;4670648;30;20050;-82
2022/07/23 01:16:57;;;;;;;13.32;5.75;;;20.80;82.30;;;;;;4616274;31;20069;-83
2022/07/23 01:19:45;;;;;;;;;;;;;;;;;;;;;
2022/07/23 01:22:17;;;;;;;10.65;5.18;;;21.00;84.10;;;;;;4599596;31;20077;-82
2022/07/23 01:24:47;;;;;;;9.25;4.97;;;21.40;84.30;;;;;;4598921;31;20078;-82
2022/07/23 01:27:44;;;;;;;11.93;5.03;;;20.90;83.30;;;;;;4599562;31;20298;-82
2022/07/23 01:30:28;;;;;;;10.50;5.30;;;20.90;82.90;;;;;;5424776;24;20039;-83
2022/07/23 01:39:49;;;;;;;9.60;4.68;;;20.80;84.10;;;;;;4670424;30;20037;-85
2022/07/23 01:42:59;;;;;;;9.05;4.95;;;20.80;84.70;;;;;;4669795;30;20279;-82
2022/07/23 01:56:39;;;;;;;10.02;4.65;;;20.50;86.70;;;;;;4683283;24;20062;-84
2022/07/23 01:59:39;;;;;;;8.93;4.63;;;20.30;87.90;;;;;;4668317;30;20042;-80
2022/07/23 02:16:15;;;;;;;8.90;4.72;;;20.20;89.60;;;;;;4669199;30;20390;-84
2022/07/23 02:18:52;;;;;;;8.00;4.82;;;20.10;90.20;;;;;;4669133;30;20548;-82
2022/07/23 02:27:34;;;;;;;9.32;4.85;;;21.10;90.80;;;;;;4757530;24;20061;-81
2022/07/23 02:30:34;;;;;;;9.35;4.32;;;20.10;90.80;;;;;;4669194;30;20235;-81
2022/07/23 02:33:00;;;;;;;8.43;4.57;;;20.40;90.80;;;;;;4667603;30;20457;-82
2022/07/23 02:35:25;;;;;;;8.40;4.80;;;20.00;91.00;;;;;;4668999;30;20038;-83
2022/07/23 02:37:51;;;;;;;8.80;4.72;;;20.00;91.20;;;;;;4668005;30;20234;-82
2022/07/23 02:40:18;;;;;;;8.52;4.70;;;20.00;91.10;;;;;;4668392;30;20272;-84
2022/07/23 02:43:08;;;;;;;14.27;5.38;;;19.90;91.30;;;;;;4745304;24;20141;-85
2022/07/23 02:45:49;;;;;;;10.00;4.80;;;21.60;91.90;;;;;;4668699;30;20050;-85
2022/07/23 02:49:04;;;;;;;11.30;4.47;;;19.90;91.40;;;;;;4722208;24;20058;-82
2022/07/23 02:58:04;;;;;;;11.35;4.65;;;20.60;91.90;;;;;;4686129;30;20094;-83
2022/07/23 03:00:30;;;;;;;9.68;4.38;;;19.80;92.00;;;;;;4684515;30;20046;-82
2022/07/23 03:02:55;;;;;;;11.85;5.15;;;19.70;91.90;;;;;;4684763;30;20446;-85
2022/07/23 03:10:59;;;;;;;7.60;4.43;;;19.60;92.20;;;;;;4985334;24;20370;-82
2022/07/23 03:13:29;;;;;;;9.77;4.78;;;19.60;92.50;;;;;;4671650;30;20641;-80
2022/07/23 03:20:05;;;;;;;8.20;3.90;;;19.50;92.40;;;;;;5366315;24;20450;-82
2022/07/23 03:31:48;;;;;;;7.93;4.28;;;19.40;92.70;;;;;;4614875;31;20362;-82
2022/07/23 03:37:06;;;;;;;11.02;5.50;;;19.00;92.70;;;;;;5186122;24;20399;-81
2022/07/23 03:45:29;;;;;;;8.90;4.20;;;19.40;92.70;;;;;;4668566;30;20573;-82
2022/07/23 03:47:58;;;;;;;9.98;5.10;;;19.30;93.40;;;;;;4667585;30;20038;-82
2022/07/23 03:50:48;;;;;;;9.20;4.70;;;19.40;92.80;;;;;;5052104;24;20062;-81
2022/07/23 03:53:45;;;;;;;7.88;3.95;;;19.40;92.80;;;;;;4667074;30;20363;-85
2022/07/23 03:56:20;;;;;;;9.90;4.93;;;20.80;93.40;;;;;;4666367;30;20042;-83
2022/07/23 04:01:29;;;;;;;8.68;4.30;;;19.40;92.70;;;;;;5209307;24;20083;-83
2022/07/23 04:11:00;;;;;;;9.00;4.65;;;19.60;92.80;;;;;;4664589;30;20070;-83
2022/07/23 04:13:27;;;;;;;9.45;3.72;;;;;;;;;;4665273;30;20533;-83
2022/07/23 04:16:52;;;;;;;10.45;4.65;;;19.50;92.40;;;;;;4665290;30;20735;-83
2022/07/23 04:22:46;;;;;;;14.27;6.15;;;19.50;92.60;;;;;;4665190;30;20044;-79
2022/07/23 04:57:35;;;;;;;8.98;4.68;;;19.50;91.80;;;;;;4533430;31;20769;-83
2022/07/23 05:00:57;;;;;;;7.63;3.88;;;18.30;91.40;;;;;;4531254;31;20587;-81
2022/07/23 05:13:25;;;;;;;11.93;5.15;;;20.60;91.00;;;;;;4667465;30;20482;-82
2022/07/23 05:32:49;;;;;;;14.10;5.15;;;21.20;90.20;;;;;;4811298;24;20522;-83
2022/07/23 05:40:29;;;;;;;9.07;5.18;;;21.40;90.00;;;;;;4910395;24;20490;-82
2022/07/23 05:42:55;;;;;;;10.15;5.07;;;21.50;90.30;;;;;;4670616;30;20113;-82
2022/07/23 05:45:21;;;;;;;8.73;4.57;;;21.70;90.30;;;;;;4669954;30;20125;-83
2022/07/23 05:58:11;;;;;;;9.60;4.82;;;21.10;87.50;;;;;;4670155;30;20208;-83
2022/07/23 06:16:19;;;;;;;11.10;5.82;;;23.00;84.10;;;;;;4758293;24;20077;-83
2022/07/23 06:19:31;;;;;;;13.35;5.68;;;24.10;84.60;;;;;;4669636;30;20408;-83
2022/07/23 06:52:57;;;;;;;10.30;6.03;;;24.70;78.60;;;;;;5058819;24;20140;-82
2022/07/23 06:55:23;;;;;;;8.82;5.43;;;23.70;77.40;;;;;;4669320;30;20239;-83
2022/07/23 07:00:34;;;;;;;14.63;6.18;;;25.20;77.20;;;;;;4665760;30;20096;-84
2022/07/23 07:03:45;;;;;;;16.13;6.53;;;25.40;77.10;;;;;;4665861;30;20291;-83
2022/07/23 07:06:55;;;;;;;11.77;7.13;;;25.50;75.40;;;;;;4614846;30;20062;-83
2022/07/23 07:18:28;;;;;;;17.92;8.30;;;26.30;73.00;;;;;;4631712;28;20055;-83
2022/07/23 07:26:26;;;;;;;16.13;9.02;;;26.50;72.50;;;;;;4765113;24;20718;-83
2022/07/23 07:29:19;;;;;;;20.13;10.27;;;26.90;72.30;;;;;;4668605;30;20066;-82
2022/07/23 07:32:25;;;;;;;;;;;28.00;72.40;;;;;;4668807;30;20721;-82
2022/07/23 07:35:32;;;;;;;24.00;9.45;;;26.30;70.40;;;;;;4668787;30;19951;-84
2022/07/23 07:37:58;;;;;;;16.02;8.90;;;26.80;71.30;;;;;;4909303;24;20050;-83
2022/07/23 08:54:50;;;;;;;12.73;6.07;;;31.30;56.80;;;;;;4910448;24;20124;-81
2022/07/23 08:57:28;;;;;;;11.05;5.50;;;31.60;57.50;;;;;;4616798;31;20081;-83
2022/07/23 09:00:13;;;;;;;9.48;5.40;;;33.90;59.20;;;;;;4602546;31;20043;-82
2022/07/23 09:03:35;;;;;;;9.85;6.00;;;31.90;56.80;;;;;;4617360;30;20134;-80
2022/07/23 09:06:40;;;;;;;12.90;6.43;;;32.50;56.20;;;;;;4584207;31;20383;-82
2022/07/23 09:20:45;;;;;;;10.13;5.80;;;32.80;52.80;;;;;;4635301;30;20141;-82
2022/07/23 09:34:50;;;;;;;10.65;4.40;;;34.20;51.40;;;;;;4671933;30;20068;-83
2022/07/23 09:46:27;;;;;;;8.50;5.13;;;34.90;51.10;;;;;;4672014;30;20549;-82
2022/07/23 09:49:30;;;;;;;10.75;5.75;;;34.20;50.90;;;;;;4670614;30;20045;-82
2022/07/23 09:52:30;;;;;;;;;;;34.50;50.40;;;;;;4681872;30;20038;-83
2022/07/23 09:55:07;;;;;;;10.23;5.95;;;34.60;49.90;;;;;;4679586;30;19916;-84
2022/07/23 09:58:22;;;;;;;9.75;5.78;;;34.40;51.40;;;;;;4682900;30;20057;-82
2022/07/23 10:01:10;;;;;;;9.00;5.68;;;35.70;50.30;;;;;;4681334;30;20550;-82
2022/07/23 10:03:49;;;;;;;8.73;5.25;;;35.70;49.40;;;;;;4672442;30;20554;-83
2022/07/23 10:06:22;;;;;;;10.70;5.60;;;35.20;50.60;;;;;;4874041;24;20054;-83
2022/07/23 10:09:01;;;;;;;11.18;6.53;;;35.60;49.60;;;;;;4672369;30;20446;-83
2022/07/23 10:18:06;;;;;;;12.70;5.60;;;36.10;47.30;;;;;;4890596;24;20081;-83
2022/07/23 10:21:11;;;;;;;15.75;6.68;;;37.10;48.30;;;;;;4668489;30;20049;-83
2022/07/23 10:32:45;;;;;;;9.00;5.38;;;36.60;46.70;;;;;;4669240;30;20058;-83
2022/07/23 10:35:52;;;;;;;8.52;5.43;;;38.50;44.90;;;;;;4668310;30;20045;-83
2022/07/23 10:38:55;;;;;;;7.68;4.82;;;36.20;42.20;;;;;;5153348;24;20049;-82
2022/07/23 10:45:44;;;;;;;8.43;5.20;;;34.10;38.40;;;;;;4686832;30;20473;-84
2022/07/23 10:53:27;;;;;;;7.93;5.07;;;37.40;38.70;;;;;;4651095;30;20501;-82
2022/07/23 11:02:58;;;;;;;7.85;4.55;;;38.00;37.70;;;;;;4958371;25;20543;-84
2022/07/23 11:05:43;;;;;;;9.60;4.68;;;38.00;37.00;;;;;;4668171;30;20058;-82
2022/07/23 11:10:57;;;;;;;8.77;5.18;;;38.00;38.10;;;;;;4725427;24;20050;-82
2022/07/23 11:17:49;;;;;;;6.88;4.03;;;39.80;38.70;;;;;;4615076;30;20085;-81
2022/07/23 11:27:01;;;;;;;9.20;4.53;;;36.60;34.90;;;;;;4668697;30;20061;-82
2022/07/23 11:30:07;;;;;;;7.70;4.93;;;38.80;35.70;;;;;;4669388;30;20235;-82
2022/07/23 11:36:07;;;;;;;8.23;4.87;;;37.80;34.50;;;;;;4669351;30;20415;-81
2022/07/23 11:38:52;;;;;;;12.80;4.88;;;39.20;35.80;;;;;;4771828;24;20104;-81
2022/07/23 11:41:43;;;;;;;14.48;4.97;;;39.10;36.30;;;;;;4709221;25;20600;-83
2022/07/23 11:48:29;;;;;;;7.57;4.70;;;38.50;35.80;;;;;;4669185;30;20041;-81
2022/07/23 11:51:47;;;;;;;8.25;5.00;;;40.80;37.70;;;;;;4658946;30;20125;-82
2022/07/23 11:54:57;;;;;;;10.85;4.82;;;36.60;32.80;;;;;;4668868;30;20355;-82
2022/07/23 12:00:13;;;;;;;8.60;4.60;;;39.90;35.20;;;;;;5058034;24;20058;-82
2022/07/23 12:03:05;;;;;;;11.18;5.28;;;40.30;35.00;;;;;;4674226;24;20066;-84
2022/07/23 12:06:08;;;;;;;10.57;5.00;;;41.50;35.40;;;;;;4664321;30;20050;-82
2022/07/23 12:11:06;;;;;;;8.23;5.10;;;41.10;35.20;;;;;;4846257;24;20062;-81
2022/07/23 12:27:23;;;;;;;8.48;5.05;;;41.70;35.20;;;;;;1327441;28;20062;-83
2022/07/23 12:30:33;;;;;;;7.65;4.40;;;41.00;34.60;;;;;;4664625;30;20050;-83
2022/07/23 12:32:59;;;;;;;8.85;5.07;;;42.80;35.20;;;;;;4667440;30;20543;-84
2022/07/23 12:35:48;;;;;;;8.48;5.57;;;42.60;34.20;;;;;;4667942;30;20331;-82
2022/07/23 12:38:16;;;;;;;8.75;5.22;;;41.70;33.70;;;;;;4987312;24;20539;-82
2022/07/23 12:40:50;;;;;;;8.45;5.40;;;43.00;34.10;;;;;;4670501;30;20038;-83
2022/07/23 12:43:25;;;;;;;10.20;5.70;;;42.80;34.30;;;;;;4670671;30;20131;-83
2022/07/23 12:46:10;;;;;;;8.95;5.63;;;42.70;34.40;;;;;;4671554;30;20375;-83
2022/07/23 12:48:37;;;;;;;7.82;4.70;;;42.70;33.80;;;;;;4670256;30;20121;-84
2022/07/23 12:51:04;;;;;;;10.15;5.70;;;42.80;34.60;;;;;;4670058;30;20446;-83
2022/07/23 12:53:31;;;;;;;10.50;5.22;;;43.20;34.00;;;;;;4671488;30;20038;-80
2022/07/23 12:56:19;;;;;;;8.30;5.07;;;43.50;34.10;;;;;;4670000;30;20050;-83
2022/07/23 12:59:27;;;;;;;9.23;5.30;;;43.70;34.20;;;;;;4671532;30;20050;-81
2022/07/23 13:11:19;;;;;;;7.93;5.40;;;45.80;32.90;;;;;;4823087;24;20054;-82
2022/07/23 13:17:26;;;;;;;9.52;5.10;;;46.20;32.70;;;;;;4671021;30;20450;-82
2022/07/23 13:22:30;;;;;;;9.07;5.63;;;45.50;32.50;;;;;;4757980;24;20054;-81
2022/07/23 13:24:59;;;;;;;10.15;5.25;;;44.70;33.70;;;;;;4670384;30;20523;-81
2022/07/23 13:27:27;;;;;;;10.95;5.70;;;44.80;34.00;;;;;;4670457;30;20235;-80
2022/07/23 13:30:27;;;;;;;9.10;5.80;;;44.50;33.40;;;;;;4670918;30;20123;-81
2022/07/23 13:32:59;;;;;;;9.88;6.10;;;46.40;34.10;;;;;;4670648;30;20041;-81
2022/07/23 13:35:25;;;;;;;8.13;5.20;;;45.60;33.20;;;;;;4669427;30;20232;-82
2022/07/23 13:38:22;;;;;;;11.80;5.93;;;45.80;33.20;;;;;;5003857;24;20279;-82
2022/07/23 13:41:41;;;;;;;8.93;5.60;;;47.70;32.40;;;;;;4602855;31;20047;-81
2022/07/23 14:35:23;;;;;;;8.15;5.75;;;46.80;31.00;;;;;;4640757;28;20450;-81
2022/07/23 14:40:24;;;;;;;9.77;6.72;;;46.60;30.20;;;;;;4673853;24;20062;-81
2022/07/23 14:42:50;;;;;;;9.70;6.68;;;46.20;31.20;;;;;;4668179;30;20365;-81
2022/07/23 14:45:29;;;;;;;9.68;6.18;;;45.40;31.10;;;;;;4674850;30;20038;-81
2022/07/23 14:47:55;;;;;;;13.25;7.07;;;45.20;31.30;;;;;;4671235;30;20422;-81
2022/07/23 14:50:36;;;;;;;10.88;7.28;;;45.70;31.10;;;;;;4669652;30;20649;-81
2022/07/23 14:53:04;;;;;;;9.98;7.07;;;46.50;31.10;;;;;;4672124;30;20198;-81
2022/07/23 14:55:41;;;;;;;10.98;6.68;;;46.00;30.10;;;;;;4671135;30;20329;-81
2022/07/23 14:58:27;;;;;;;9.48;6.38;;;46.10;31.00;;;;;;4673583;30;20038;-81
2022/07/23 15:00:54;;;;;;;10.80;7.20;;;46.40;31.20;;;;;;4677146;24;20062;-80
2022/07/23 15:03:20;;;;;;;9.85;7.10;;;46.50;30.60;;;;;;4669018;30;20600;-81
2022/07/23 15:05:46;;;;;;;13.23;7.60;;;46.30;30.40;;;;;;4669901;30;20050;-81
2022/07/23 15:08:11;;;;;;;10.93;7.88;;;46.30;30.60;;;;;;4667929;30;20304;-81
2022/07/23 15:10:40;;;;;;;12.13;7.75;;;46.40;30.90;;;;;;4670058;30;20129;-81
2022/07/23 15:13:09;;;;;;;10.05;7.07;;;46.70;31.20;;;;;;4668019;30;20565;-82
2022/07/23 15:15:35;;;;;;;9.75;6.80;;;46.70;31.20;;;;;;4668350;30;20038;-82
2022/07/23 15:18:01;;;;;;;11.00;6.50;;;46.30;29.00;;;;;;4668550;30;20450;-81
2022/07/23 15:20:27;;;;;;;8.55;6.35;;;45.70;30.00;;;;;;4668220;30;20038;-80
2022/07/23 15:22:55;;;;;;;8.25;6.03;;;45.60;29.30;;;;;;4669837;30;20049;-82
2022/07/23 15:25:20;;;;;;;9.20;6.60;;;45.60;29.40;;;;;;4668060;30;20054;-82
2022/07/23 15:27:59;;;;;;;9.23;6.75;;;45.50;29.80;;;;;;4669490;30;20674;-81
2022/07/23 15:30:26;;;;;;;9.27;6.30;;;45.30;30.00;;;;;;4668565;30;20200;-82
2022/07/23 15:32:55;;;;;;;10.40;7.35;;;45.30;30.50;;;;;;4668384;30;20500;-82
2022/07/23 15:35:23;;;;;;;10.50;7.75;;;45.50;31.10;;;;;;4669938;30;20061;-82
2022/07/23 15:38:09;;;;;;;11.65;7.50;;;45.40;30.80;;;;;;4669825;30;20096;-82
2022/07/23 15:40:50;;;;;;;10.40;7.43;;;44.80;31.90;;;;;;4668025;30;20077;-84
2022/07/23 15:43:15;;;;;;;10.25;7.43;;;44.20;31.00;;;;;;4669851;30;20045;-81
2022/07/23 15:45:41;;;;;;;9.68;6.88;;;44.30;31.20;;;;;;4670257;30;20295;-83
2022/07/23 15:49:26;;;;;;;9.50;7.10;;;44.10;31.20;;;;;;4673176;30;20038;-81
2022/07/23 15:51:21;;;;;;;10.40;6.68;;;42.00;29.70;;;;;;4674512;30;20049;-81
2022/07/23 15:56:17;;;;;;;10.80;6.90;;;44.20;31.00;;;;;;4673718;30;20062;-83
2022/07/23 15:59:20;;;;;;;10.25;7.38;;;44.00;31.60;;;;;;4672152;30;20042;-85
2022/07/23 16:01:46;;;;;;;10.02;7.03;;;44.30;31.10;;;;;;4667692;30;20074;-80
2022/07/23 16:04:12;;;;;;;9.90;7.03;;;44.30;32.50;;;;;;4667006;30;20068;-82
2022/07/23 16:06:40;;;;;;;10.43;7.07;;;44.40;32.40;;;;;;4667829;30;20358;-81
2022/07/23 16:09:06;;;;;;;10.43;7.07;;;44.70;31.90;;;;;;4667398;30;20397;-80
2022/07/23 16:11:32;;;;;;;10.23;6.78;;;44.80;31.00;;;;;;4668697;30;20042;-80
2022/07/23 16:16:28;;;;;;;10.82;7.32;;;44.70;31.20;;;;;;4666696;30;20054;-81
2022/07/23 16:18:57;;;;;;;11.55;7.20;;;44.20;32.20;;;;;;4666633;30;20061;-81
2022/07/23 16:21:24;;;;;;;9.32;6.57;;;43.50;32.50;;;;;;4666966;30;20041;-81
2022/07/23 16:24:22;;;;;;;11.88;6.88;;;43.70;32.00;;;;;;4668013;30;20095;-82
2022/07/23 16:26:48;;;;;;;11.10;6.97;;;43.50;31.70;;;;;;4668250;30;20046;-81
2022/07/23 16:29:14;;;;;;;8.73;5.65;;;43.20;32.30;;;;;;4667757;30;20118;-80
2022/07/23 16:31:40;;;;;;;9.05;5.32;;;42.40;30.90;;;;;;4682738;24;20042;-80
2022/07/23 16:34:43;;;;;;;10.32;5.93;;;42.40;31.60;;;;;;4666572;30;20258;-83
2022/07/23 16:37:10;;;;;;;11.93;6.40;;;42.70;31.70;;;;;;4666891;30;20276;-82
2022/07/23 16:39:42;;;;;;;8.88;6.60;;;41.80;32.00;;;;;;4652790;30;20561;-82
2022/07/23 16:42:08;;;;;;;10.88;7.75;;;42.30;34.10;;;;;;4689804;24;20109;-82
2022/07/23 16:44:37;;;;;;;13.07;7.68;;;42.90;34.70;;;;;;4671062;30;20121;-83
2022/07/23 16:47:07;;;;;;;9.38;6.07;;;42.00;34.30;;;;;;4669297;30;20053;-83
2022/07/23 16:49:34;;;;;;;7.53;4.93;;;37.90;31.30;;;;;;4670126;30;20389;-84
2022/07/23 16:52:00;;;;;;;8.65;4.65;;;41.10;33.70;;;;;;4668389;30;20102;-81
2022/07/23 16:54:26;;;;;;;8.98;4.78;;;40.40;32.30;;;;;;4668150;30;20042;-82
2022/07/23 16:56:55;;;;;;;8.63;5.55;;;40.10;33.50;;;;;;4666480;30;20123;-82
2022/07/23 16:59:21;;;;;;;8.48;4.70;;;40.20;34.40;;;;;;4666321;30;20046;-81
2022/07/23 17:01:47;;;;;;;10.15;4.95;;;39.50;33.70;;;;;;4666199;30;20478;-83
2022/07/23 17:07:02;;;;;;;8.75;4.93;;;39.00;33.20;;;;;;4981919;24;20077;-81
2022/07/23 17:09:29;;;;;;;9.45;4.63;;;;;;;;;;4668532;30;20034;-83
2022/07/23 17:11:55;;;;;;;13.52;5.03;;;38.00;33.10;;;;;;4668396;30;20542;-81
2022/07/23 17:19:59;;;;;;;8.25;4.60;;;37.00;34.80;;;;;;4727036;24;20321;-82
2022/07/23 17:22:25;;;;;;;8.73;5.25;;;36.80;34.80;;;;;;4670927;30;20410;-82
2022/07/23 17:24:51;;;;;;;11.88;5.00;;;36.40;35.40;;;;;;4669235;30;20643;-84
2022/07/23 17:27:18;;;;;;;8.95;5.03;;;36.10;35.70;;;;;;4669437;30;20546;-84
2022/07/23 17:29:44;;;;;;;10.25;5.07;;;35.70;35.50;;;;;;4670230;30;20034;-81
2022/07/23 17:32:10;;;;;;;8.35;4.70;;;35.50;35.70;;;;;;4669158;30;20502;-81
2022/07/23 17:34:36;;;;;;;9.07;4.93;;;35.30;35.80;;;;;;4670235;30;20128;-81
2022/07/23 17:39:35;;;;;;;8.60;4.97;;;35.00;36.00;;;;;;5175472;24;20066;-84
2022/07/23 17:42:01;;;;;;;8.40;4.70;;;34.40;36.20;;;;;;4668475;30;20112;-83
2022/07/23 17:44:26;;;;;;;9.82;5.13;;;34.50;36.40;;;;;;4669581;30;20125;-82
2022/07/23 17:46:52;;;;;;;8.02;5.05;;;34.00;36.30;;;;;;4667709;30;20065;-83
2022/07/23 17:49:19;;;;;;;7.45;4.47;;;34.30;36.50;;;;;;4667711;30;20038;-83
2022/07/23 17:51:45;;;;;;;9.02;4.60;;;34.20;36.60;;;;;;4667892;30;20116;-83
2022/07/23 17:54:11;;;;;;;9.45;4.78;;;34.00;36.60;;;;;;4667489;30;20040;-83
2022/07/23 17:56:37;;;;;;;9.30;5.13;;;34.00;36.80;;;;;;4667990;30;20120;-82
2022/07/23 17:59:23;;;;;;;9.68;5.05;;;33.90;36.80;;;;;;4669642;30;20479;-83
2022/07/23 18:01:49;;;;;;;8.63;4.53;;;33.80;37.10;;;;;;4668855;30;20070;-83
2022/07/23 18:04:15;;;;;;;9.10;4.35;;;33.60;37.00;;;;;;4667626;30;20553;-82
2022/07/23 18:06:41;;;;;;;9.55;4.72;;;33.90;38.10;;;;;;4667745;30;20065;-81
2022/07/23 18:09:09;;;;;;;10.93;5.05;;;33.30;37.70;;;;;;4667276;30;20342;-83
2022/07/23 18:14:21;;;;;;;9.05;5.05;;;33.70;38.50;;;;;;5367182;24;1942425;-84
2022/07/23 18:16:47;;;;;;;12.88;5.10;;;32.90;38.40;;;;;;4652472;30;20510;-83
2022/07/23 18:19:12;;;;;;;10.85;5.20;;;32.80;38.50;;;;;;4652930;30;20289;-82
2022/07/23 18:21:40;;;;;;;11.95;5.28;;;32.60;38.70;;;;;;4652316;30;20654;-81
2022/07/23 18:24:06;;;;;;;8.93;5.22;;;32.60;38.50;;;;;;4652367;30;20034;-84
2022/07/23 18:26:31;;;;;;;9.60;5.60;;;32.40;38.70;;;;;;4652075;30;20057;-83
2022/07/23 18:28:57;;;;;;;11.38;5.72;;;32.30;39.60;;;;;;4651814;30;20031;-83
2022/07/23 18:31:23;;;;;;;10.25;6.03;;;32.10;39.80;;;;;;4652519;30;20123;-82
2022/07/23 18:33:49;;;;;;;12.60;6.40;;;32.10;41.00;;;;;;4652186;30;20046;-83
2022/07/23 18:36:35;;;;;;;12.45;5.47;;;31.90;41.40;;;;;;4652800;30;20575;-87
2022/07/23 18:39:03;;;;;;;10.02;5.32;;;;;;;;;;4650797;30;20446;-83
2022/07/23 18:41:50;;;;;;;17.88;7.00;;;31.60;42.10;;;;;;4650641;30;20498;-84
2022/07/23 18:44:17;;;;;;;10.73;6.05;;;31.40;42.90;;;;;;4651856;30;20047;-83
2022/07/23 18:46:43;;;;;;;11.35;6.68;;;31.20;43.60;;;;;;4650837;30;20585;-83
2022/07/23 18:49:09;;;;;;;13.45;7.32;;;32.00;45.40;;;;;;4652434;30;20060;-83
2022/07/23 18:51:35;;;;;;;10.75;6.78;;;30.80;44.40;;;;;;4652030;30;20042;-83
2022/07/23 18:54:02;;;;;;;15.80;6.13;;;30.60;45.10;;;;;;4652126;30;20039;-84
2022/07/23 18:56:28;;;;;;;15.40;5.95;;;30.40;45.50;;;;;;4652018;30;20710;-83
2022/07/23 18:58:55;;;;;;;17.80;6.88;;;30.20;46.10;;;;;;4652174;30;20042;-79
2022/07/23 19:01:20;;;;;;;18.40;7.00;;;30.10;46.20;;;;;;4650521;30;20471;-83
2022/07/23 19:03:46;;;;;;;14.15;7.43;;;29.90;46.80;;;;;;4650596;30;20251;-82
2022/07/23 19:06:12;;;;;;;16.08;7.90;;;29.70;46.90;;;;;;4651978;30;20046;-84
2022/07/23 19:08:39;;;;;;;11.55;6.55;;;29.60;46.90;;;;;;4652302;30;20055;-82
2022/07/23 19:11:06;;;;;;;19.02;6.88;;;29.40;47.10;;;;;;4652134;30;20238;-83
2022/07/23 19:16:41;;;;;;;10.65;6.20;;;29.30;47.00;;;;;;5052973;24;20155;-82
2022/07/23 19:19:07;;;;;;;13.25;5.80;;;29.20;46.90;;;;;;4669042;30;20054;-81
2022/07/23 19:21:33;;;;;;;16.05;6.65;;;29.10;47.30;;;;;;4667433;30;20050;-82
2022/07/23 19:23:59;;;;;;;13.55;6.70;;;29.00;47.80;;;;;;4667703;30;20427;-82
2022/07/23 19:26:25;;;;;;;15.75;6.35;;;28.60;49.00;;;;;;4666919;30;20313;-81
2022/07/23 19:28:52;;;;;;;13.30;6.88;;;28.50;48.60;;;;;;4667313;30;20076;-81
2022/07/23 19:31:23;;;;;;;14.43;6.30;;;28.30;50.20;;;;;;4667272;30;20046;-83
2022/07/23 19:33:55;;;;;;;18.90;7.95;;;;;;;;;;4668025;30;20099;-80
2022/07/23 19:36:21;;;;;;;16.20;8.20;;;28.20;48.90;;;;;;4667141;30;20215;-81
2022/07/23 19:38:47;;;;;;;16.45;7.80;;;28.10;50.00;;;;;;4666830;30;20419;-81
2022/07/23 19:41:13;;;;;;;15.65;7.20;;;28.00;49.10;;;;;;4667132;30;20038;-81
2022/07/23 19:43:57;;;;;;;11.27;5.90;;;27.80;49.80;;;;;;4668266;30;20341;-83
2022/07/23 19:47:04;;;;;;;15.90;8.35;;;27.70;49.60;;;;;;4669114;30;20069;-84
2022/07/23 19:49:30;;;;;;;12.75;6.32;;;26.30;48.00;;;;;;4666886;30;20815;-82
2022/07/23 19:51:56;;;;;;;22.52;7.60;;;27.50;49.50;;;;;;4668137;30;20125;-81
2022/07/23 19:54:22;;;;;;;14.57;6.80;;;27.40;49.70;;;;;;4667060;30;20165;-81
2022/07/23 19:56:49;;;;;;;12.93;6.93;;;27.80;49.50;;;;;;4666713;30;20204;-81
2022/07/23 19:59:15;;;;;;;18.08;8.32;;;27.30;49.10;;;;;;4668386;30;20034;-81
2022/07/23 20:01:41;;;;;;;21.30;8.32;;;27.20;50.10;;;;;;4667085;30;20046;-82
2022/07/23 20:04:06;;;;;;;16.00;7.25;;;27.20;49.30;;;;;;4667834;30;20038;-82
2022/07/23 20:11:33;;;;;;;13.48;7.50;;;26.90;50.00;;;;;;4680531;24;20136;-82
2022/07/23 20:14:00;;;;;;;16.50;7.00;;;26.80;50.10;;;;;;4666991;30;20602;-82
2022/07/23 20:16:28;;;;;;;12.45;7.55;;;28.40;51.20;;;;;;4666194;30;20425;-81
2022/07/23 20:18:54;;;;;;;13.27;7.05;;;26.60;50.50;;;;;;4672397;24;20494;-81
2022/07/23 20:23:56;;;;;;;11.73;6.38;;;27.50;50.80;;;;;;5061070;24;20073;-81
2022/07/23 20:26:22;;;;;;;12.18;7.32;;;26.50;49.90;;;;;;4665908;30;20053;-81
2022/07/23 20:28:55;;;;;;;14.25;7.05;;;26.60;50.50;;;;;;4665837;30;20042;-81
2022/07/23 20:31:21;;;;;;;11.15;6.88;;;26.40;50.40;;;;;;4667739;30;20053;-82
2022/07/23 20:33:46;;;;;;;12.38;7.15;;;26.90;50.80;;;;;;4667340;30;20030;-82
2022/07/23 20:36:15;;;;;;;14.52;7.18;;;26.20;50.90;;;;;;4666047;30;20099;-81
2022/07/23 20:38:46;;;;;;;11.68;7.10;;;26.10;51.20;;;;;;4667579;30;20065;-82
2022/07/23 20:41:15;;;;;;;10.68;6.70;;;26.10;50.60;;;;;;4665968;30;20136;-81
2022/07/23 20:43:43;;;;;;;12.52;6.68;;;26.00;50.50;;;;;;4667774;30;20073;-83
2022/07/23 20:46:09;;;;;;;10.85;6.80;;;26.00;52.50;;;;;;4666526;30;20062;-82
2022/07/23 20:48:35;;;;;;;14.00;6.97;;;26.90;53.50;;;;;;4667817;30;20302;-83
2022/07/23 20:51:01;;;;;;;12.25;6.75;;;25.70;52.10;;;;;;4668291;30;20072;-82
2022/07/23 20:53:29;;;;;;;14.45;6.97;;;25.70;52.10;;;;;;4669364;30;20396;-83
2022/07/23 20:55:55;;;;;;;13.00;7.55;;;25.60;50.80;;;;;;4669585;30;20739;-83
2022/07/23 20:58:41;;;;;;;13.00;6.97;;;25.50;54.40;;;;;;4671017;30;20030;-83
2022/07/23 21:04:10;;;;;;;13.20;7.53;;;;;;;;;;4661173;24;20062;-83
2022/07/23 21:06:41;;;;;;;11.35;6.55;;;25.40;50.60;;;;;;4653598;30;20058;-84
2022/07/23 21:09:07;;;;;;;11.77;6.38;;;25.40;52.40;;;;;;4666376;30;20235;-82
2022/07/23 21:11:45;;;;;;;11.43;6.22;;;25.40;50.80;;;;;;4666316;30;20238;-85
2022/07/23 21:17:09;;;;;;;11.00;5.63;;;;;;;;;;4653455;30;20123;-82
2022/07/23 21:19:35;;;;;;;11.70;5.95;;;25.20;51.00;;;;;;4653422;30;20526;-82
2022/07/23 21:22:01;;;;;;;14.35;6.53;;;25.00;52.70;;;;;;4661521;24;20036;-81
2022/07/23 21:24:28;;;;;;;10.30;6.15;;;25.20;53.80;;;;;;4668230;30;20550;-83
2022/07/23 21:26:53;;;;;;;11.93;5.78;;;25.00;51.90;;;;;;4668850;30;20480;-82
2022/07/23 21:29:19;;;;;;;8.65;5.50;;;25.00;51.60;;;;;;4670138;30;20042;-82
2022/07/23 21:31:46;;;;;;;12.07;6.18;;;24.90;51.70;;;;;;4670386;30;20460;-81
2022/07/23 21:34:12;;;;;;;12.35;5.22;;;25.00;51.40;;;;;;4670117;30;20116;-81
2022/07/23 21:36:38;;;;;;;11.55;6.05;;;24.90;51.60;;;;;;4668916;30;20527;-82
2022/07/23 21:39:05;;;;;;;8.80;6.03;;;24.90;51.70;;;;;;4670023;30;20057;-83
2022/07/23 21:41:31;;;;;;;10.57;5.95;;;24.90;52.00;;;;;;4670034;30;20502;-82
2022/07/23 21:43:58;;;;;;;12.13;5.45;;;24.80;52.60;;;;;;4670116;30;20519;-81
2022/07/23 21:46:43;;;;;;;11.32;6.13;;;24.70;52.60;;;;;;4670035;30;20171;-83
2022/07/23 21:49:09;;;;;;;10.65;6.18;;;25.20;53.20;;;;;;4669868;30;20112;-81
2022/07/23 21:51:35;;;;;;;12.40;6.82;;;24.50;53.00;;;;;;4669992;30;20125;-82
2022/07/23 21:54:01;;;;;;;12.02;5.25;;;24.50;53.10;;;;;;4669989;30;20335;-82
2022/07/23 21:56:27;;;;;;;11.63;5.95;;;24.40;52.90;;;;;;4669881;30;20708;-83
2022/07/23 21:58:53;;;;;;;11.82;6.55;;;24.40;53.50;;;;;;4668443;30;20038;-82
2022/07/23 22:01:19;;;;;;;13.35;6.68;;;24.40;53.30;;;;;;4669802;30;20053;-83
2022/07/23 22:03:51;;;;;;;11.48;6.30;;;24.30;53.30;;;;;;4667366;30;20422;-82
2022/07/23 22:06:17;;;;;;;10.32;5.60;;;;;;;;;;4668582;30;20415;-82
2022/07/23 22:08:43;;;;;;;10.25;5.55;;;;;;;;;;4669709;30;20691;-82
2022/07/23 22:11:09;;;;;;;14.82;6.43;;;24.30;52.60;;;;;;4668053;30;20225;-82
2022/07/23 22:13:35;;;;;;;12.93;6.93;;;24.20;53.20;;;;;;4668464;30;20113;-83
2022/07/23 22:16:00;;;;;;;11.15;7.57;;;24.30;53.10;;;;;;4668309;30;20446;-83
2022/07/23 22:18:26;;;;;;;11.13;6.93;;;24.20;53.40;;;;;;4669600;30;20262;-83
2022/07/23 22:20:53;;;;;;;13.63;6.90;;;24.60;53.50;;;;;;4668249;30;20434;-82
2022/07/23 22:23:20;;;;;;;10.02;6.78;;;24.10;53.40;;;;;;4668003;30;20058;-84
2022/07/23 22:25:45;;;;;;;14.23;6.22;;;24.10;53.10;;;;;;4667924;30;20050;-83